createdAt,value
2023-05-23T00:01:10.587Z,12.88
2023-05-23T00:03:37.714Z,13.93
2023-05-23T00:06:06.819Z,13.43
2023-05-23T00:08:33.362Z,12.45
2023-05-23T00:10:59.875Z,12.93
2023-05-23T00:13:26.979Z,12.10
2023-05-23T00:15:53.712Z,13.48
2023-05-23T00:18:20.279Z,11.15
2023-05-23T00:20:47.143Z,11.98
2023-05-23T00:23:19.482Z,12.45
2023-05-23T00:25:52.557Z,12.55
2023-05-23T00:28:19.441Z,11.52
2023-05-23T00:30:46.008Z,11.00
2023-05-23T00:33:14.414Z,12.23
2023-05-23T00:35:42.348Z,13.02
2023-05-23T00:38:09.296Z,12.18
2023-05-23T00:40:35.849Z,12.52
2023-05-23T00:43:02.638Z,12.52
2023-05-23T00:45:29.349Z,11.48
2023-05-23T00:47:56.629Z,11.60
2023-05-23T00:50:23.466Z,11.75
2023-05-23T00:52:50.163Z,10.88
2023-05-23T00:55:16.816Z,10.38
2023-05-23T00:57:44.424Z,9.95
2023-05-23T01:00:15.522Z,10.82
2023-05-23T01:02:45.193Z,10.20
2023-05-23T01:05:14.448Z,9.27
2023-05-23T01:07:41.682Z,9.15
2023-05-23T01:10:09.357Z,8.55
2023-05-23T01:12:51.317Z,9.75
2023-05-23T01:15:20.137Z,10.27
2023-05-23T01:17:56.176Z,9.50
2023-05-23T01:20:25.790Z,9.68
2023-05-23T01:23:14.390Z,9.95
2023-05-23T01:25:58.564Z,8.77
2023-05-23T01:28:31.262Z,9.57
2023-05-23T01:30:59.150Z,9.93
2023-05-23T01:33:26.341Z,9.15
2023-05-23T01:35:52.998Z,10.25
2023-05-23T01:38:19.517Z,9.45
2023-05-23T01:40:46.054Z,11.15
2023-05-23T01:43:13.018Z,10.68
2023-05-23T01:45:40.076Z,9.98
2023-05-23T01:48:07.180Z,9.63
2023-05-23T01:50:34.258Z,9.90
2023-05-23T01:53:01.433Z,10.10
2023-05-23T01:55:28.264Z,11.57
2023-05-23T01:57:56.493Z,10.27
2023-05-23T02:00:23.700Z,10.27
2023-05-23T02:02:50.416Z,11.35
2023-05-23T02:05:17.335Z,10.52
2023-05-23T02:07:43.941Z,11.50
2023-05-23T02:10:10.839Z,10.70
2023-05-23T02:12:37.494Z,11.02
2023-05-23T02:15:04.601Z,13.25
2023-05-23T02:17:31.254Z,11.23
2023-05-23T02:19:57.863Z,11.13
2023-05-23T02:22:25.669Z,11.93
2023-05-23T02:24:52.521Z,11.88
2023-05-23T02:27:19.454Z,11.18
2023-05-23T02:29:46.141Z,11.45
2023-05-23T02:32:12.848Z,12.95
2023-05-23T02:34:40.424Z,12.82
2023-05-23T02:37:07.138Z,11.63
2023-05-23T02:39:36.013Z,15.43
2023-05-23T02:42:02.915Z,12.40
2023-05-23T02:44:29.553Z,14.02
2023-05-23T02:46:56.151Z,11.77
2023-05-23T02:49:23.311Z,14.43
2023-05-23T02:51:50.054Z,12.93
2023-05-23T02:54:17.051Z,13.02
2023-05-23T02:56:45.544Z,14.20
2023-05-23T02:59:12.367Z,20.85
2023-05-23T03:01:39.008Z,12.77
2023-05-23T03:04:05.781Z,14.15
2023-05-23T03:06:34.149Z,14.32
2023-05-23T03:09:01.503Z,16.60
2023-05-23T03:11:29.862Z,14.85
2023-05-23T03:13:56.504Z,14.52
2023-05-23T03:16:24.119Z,15.57
2023-05-23T03:18:50.867Z,14.52
2023-05-23T03:21:17.557Z,14.18
2023-05-23T03:23:44.206Z,13.95
2023-05-23T03:26:10.757Z,13.30
2023-05-23T03:28:37.351Z,13.50
2023-05-23T03:31:03.956Z,11.95
2023-05-23T03:33:30.703Z,11.63
2023-05-23T03:35:57.733Z,12.27
2023-05-23T03:38:24.294Z,14.50
2023-05-23T03:40:50.875Z,11.95
2023-05-23T03:43:17.527Z,11.50
2023-05-23T03:45:44.503Z,10.35
2023-05-23T03:48:11.332Z,11.40
2023-05-23T03:50:37.861Z,11.35
2023-05-23T03:53:04.484Z,12.88
2023-05-23T03:55:32.596Z,11.57
2023-05-23T03:57:59.419Z,11.50
2023-05-23T04:00:26.413Z,12.02
2023-05-23T04:02:53.265Z,12.45
2023-05-23T04:05:19.871Z,12.25
2023-05-23T04:07:46.489Z,14.73
2023-05-23T04:10:12.996Z,10.95
2023-05-23T04:12:41.628Z,13.38
2023-05-23T04:15:11.323Z,12.60
2023-05-23T04:17:39.012Z,11.88
2023-05-23T04:20:13.080Z,14.07
2023-05-23T04:22:39.849Z,14.00
2023-05-23T04:25:06.849Z,11.50
2023-05-23T04:27:34.602Z,11.48
2023-05-23T04:30:01.388Z,13.00
2023-05-23T04:32:28.146Z,13.77
2023-05-23T04:34:56.885Z,12.60
2023-05-23T04:37:26.343Z,12.68
2023-05-23T04:39:53.371Z,13.90
2023-05-23T04:42:24.526Z,14.60
2023-05-23T04:44:52.715Z,15.30
2023-05-23T04:47:24.930Z,14.73
2023-05-23T04:49:54.368Z,17.25
2023-05-23T04:52:21.761Z,18.98
2023-05-23T04:54:52.885Z,16.58
2023-05-23T04:57:28.802Z,16.58
2023-05-23T04:59:55.507Z,14.20
2023-05-23T05:02:22.159Z,16.30
2023-05-23T05:04:48.912Z,16.30
2023-05-23T05:07:16.761Z,15.65
2023-05-23T05:09:45.876Z,17.75
2023-05-23T05:12:12.482Z,14.95
2023-05-23T05:14:39.029Z,15.32
2023-05-23T05:17:05.633Z,16.30
2023-05-23T05:19:32.379Z,19.35
2023-05-23T05:22:00.222Z,16.80
2023-05-23T05:24:27.945Z,16.40
2023-05-23T05:26:54.856Z,15.93
2023-05-23T05:29:21.823Z,16.05
2023-05-23T05:31:48.875Z,17.42
2023-05-23T05:34:15.900Z,16.60
2023-05-23T05:36:46.862Z,17.08
2023-05-23T05:39:14.442Z,16.65
2023-05-23T05:41:41.184Z,18.85
2023-05-23T05:44:08.708Z,17.88
2023-05-23T05:46:35.403Z,15.75
2023-05-23T05:49:02.062Z,15.98
2023-05-23T05:51:29.448Z,14.73
2023-05-23T05:53:56.072Z,14.90
2023-05-23T05:56:22.852Z,17.05
2023-05-23T05:58:49.584Z,17.92
2023-05-23T06:01:16.261Z,19.00
2023-05-23T06:03:43.271Z,15.48
2023-05-23T06:06:10.474Z,14.43
2023-05-23T06:08:38.214Z,15.55
2023-05-23T06:11:06.301Z,15.50
2023-05-23T06:13:32.795Z,20.92
2023-05-23T06:15:59.510Z,20.05
2023-05-23T06:18:26.435Z,13.25
2023-05-23T06:20:52.984Z,14.93
2023-05-23T06:23:19.745Z,16.45
2023-05-23T06:25:46.571Z,15.52
2023-05-23T06:28:13.120Z,15.18
2023-05-23T06:30:40.022Z,13.10
2023-05-23T06:33:06.830Z,15.68
2023-05-23T06:35:33.357Z,15.23
2023-05-23T06:37:59.959Z,14.82
2023-05-23T06:40:26.729Z,12.48
2023-05-23T06:42:53.289Z,14.35
2023-05-23T06:45:19.898Z,12.40
2023-05-23T06:47:48.182Z,11.13
2023-05-23T06:50:14.808Z,11.98
2023-05-23T06:52:42.880Z,13.38
2023-05-23T06:55:10.044Z,13.23
2023-05-23T06:57:36.587Z,13.25
2023-05-23T07:00:03.382Z,12.57
2023-05-23T07:02:29.990Z,14.05
2023-05-23T07:04:56.631Z,15.20
2023-05-23T07:07:23.160Z,14.27
2023-05-23T07:09:49.683Z,13.73
2023-05-23T07:12:16.369Z,13.85
2023-05-23T07:14:42.950Z,13.02
2023-05-23T07:17:09.603Z,13.25
2023-05-23T07:19:36.355Z,13.52
2023-05-23T07:22:02.958Z,17.60
2023-05-23T07:24:29.514Z,15.55
2023-05-23T07:26:56.321Z,15.27
2023-05-23T07:29:22.939Z,15.65
2023-05-23T07:31:49.589Z,16.52
2023-05-23T07:34:16.108Z,14.00
2023-05-23T07:36:42.675Z,15.60
2023-05-23T07:39:09.194Z,13.68
2023-05-23T07:41:35.830Z,13.88
2023-05-23T07:44:02.519Z,12.07
2023-05-23T07:46:29.209Z,14.38
2023-05-23T07:48:57.183Z,15.27
2023-05-23T07:51:24.099Z,12.75
2023-05-23T07:53:50.633Z,12.25
2023-05-23T07:56:19.882Z,13.75
2023-05-23T07:58:46.501Z,18.00
2023-05-23T08:01:14.724Z,15.63
2023-05-23T08:03:41.338Z,10.73
2023-05-23T08:06:08.938Z,12.93
2023-05-23T08:08:36.285Z,12.27
2023-05-23T08:11:06.384Z,17.92
2023-05-23T08:13:35.606Z,14.98
2023-05-23T08:16:02.206Z,11.45
2023-05-23T08:18:30.843Z,14.43
2023-05-23T08:20:57.476Z,20.35
2023-05-23T08:23:24.236Z,13.90
2023-05-23T08:25:51.590Z,13.50
2023-05-23T08:28:18.151Z,12.93
2023-05-23T08:30:44.758Z,14.45
2023-05-23T08:33:14.514Z,13.93
2023-05-23T08:35:41.702Z,16.30
2023-05-23T08:38:09.843Z,16.65
2023-05-23T08:40:39.688Z,15.45
2023-05-23T08:43:06.887Z,13.30
2023-05-23T08:45:36.213Z,17.83
2023-05-23T08:48:04.737Z,14.18
2023-05-23T08:50:31.715Z,12.07
2023-05-23T08:52:59.947Z,16.52
2023-05-23T08:55:28.588Z,18.67
2023-05-23T08:57:56.235Z,16.08
2023-05-23T09:00:24.746Z,15.25
2023-05-23T09:02:51.663Z,19.33
2023-05-23T09:05:18.701Z,17.52
2023-05-23T09:07:51.894Z,13.70
2023-05-23T09:10:22.238Z,17.27
2023-05-23T09:12:49.323Z,13.93
2023-05-23T09:15:17.317Z,19.77
2023-05-23T09:17:45.324Z,19.45
2023-05-23T09:20:17.191Z,18.75
2023-05-23T09:22:55.090Z,15.75
2023-05-23T09:25:21.863Z,14.13
2023-05-23T09:27:56.624Z,15.35
2023-05-23T09:30:23.205Z,20.27
2023-05-23T09:33:04.069Z,16.58
2023-05-23T09:35:32.075Z,19.52
2023-05-23T09:38:01.774Z,16.35
2023-05-23T09:40:32.123Z,12.15
2023-05-23T09:43:04.115Z,16.92
2023-05-23T09:45:31.582Z,17.67
2023-05-23T09:47:58.601Z,14.43
2023-05-23T09:50:31.100Z,12.07
2023-05-23T09:52:57.739Z,13.27
2023-05-23T09:55:24.288Z,11.38
2023-05-23T09:57:54.727Z,14.48
2023-05-23T10:00:21.443Z,14.15
2023-05-23T10:03:00.460Z,10.27
2023-05-23T10:05:57.322Z,13.38
2023-05-23T10:08:32.806Z,15.35
2023-05-23T10:11:14.672Z,11.52
2023-05-23T10:13:43.960Z,14.15
2023-05-23T10:16:27.510Z,10.63
2023-05-23T10:18:59.599Z,13.30
2023-05-23T10:21:40.938Z,13.23
2023-05-23T10:24:08.228Z,17.90
2023-05-23T10:26:35.215Z,14.00
2023-05-23T10:29:02.311Z,20.23
2023-05-23T10:31:29.248Z,23.50
2023-05-23T10:34:06.371Z,18.50
2023-05-23T10:37:01.728Z,20.70
2023-05-23T10:40:13.033Z,18.15
2023-05-23T10:42:58.321Z,13.57
2023-05-23T10:45:24.919Z,12.02
2023-05-23T10:47:55.529Z,12.45
2023-05-23T10:50:32.986Z,14.73
2023-05-23T10:53:02.149Z,13.85
2023-05-23T10:55:32.514Z,12.93
2023-05-23T10:58:23.293Z,14.25
2023-05-23T11:00:57.569Z,13.63
2023-05-23T11:03:38.523Z,13.68
2023-05-23T11:06:09.028Z,13.63
2023-05-23T11:08:47.616Z,13.43
2023-05-23T11:11:15.901Z,12.93
2023-05-23T11:13:57.062Z,14.90
2023-05-23T11:16:41.058Z,11.50
2023-05-23T11:19:24.802Z,11.32
2023-05-23T11:22:02.325Z,12.55
2023-05-23T11:24:49.076Z,13.40
2023-05-23T11:27:15.819Z,13.20
2023-05-23T11:29:42.656Z,10.40
2023-05-23T11:32:17.402Z,12.65
2023-05-23T11:34:44.543Z,15.45
2023-05-23T11:37:12.080Z,10.68
2023-05-23T11:39:38.692Z,12.20
2023-05-23T11:42:06.693Z,17.08
2023-05-23T11:44:33.251Z,11.23
2023-05-23T11:47:02.877Z,9.05
2023-05-23T11:49:34.270Z,9.02
2023-05-23T11:52:02.195Z,10.90
2023-05-23T11:54:29.408Z,9.48
2023-05-23T11:56:56.252Z,9.60
2023-05-23T11:59:26.039Z,10.52
2023-05-23T12:01:53.229Z,9.23
2023-05-23T12:04:20.646Z,9.40
2023-05-23T12:06:48.845Z,10.93
2023-05-23T12:09:15.866Z,10.43
2023-05-23T12:11:42.942Z,10.25
2023-05-23T12:14:14.790Z,10.10
2023-05-23T12:16:49.690Z,8.40
2023-05-23T12:19:19.443Z,9.52
2023-05-23T12:21:47.334Z,7.28
2023-05-23T12:24:21.548Z,8.13
2023-05-23T12:26:52.608Z,10.43
2023-05-23T12:29:28.159Z,14.85
2023-05-23T12:31:54.970Z,8.18
2023-05-23T12:34:21.951Z,9.50
2023-05-23T12:36:57.176Z,8.25
2023-05-23T12:39:30.750Z,9.38
2023-05-23T12:42:08.787Z,11.45
2023-05-23T12:44:35.822Z,9.52
2023-05-23T12:47:05.704Z,10.77
2023-05-23T12:49:32.444Z,12.15
2023-05-23T12:51:59.057Z,10.90
2023-05-23T12:54:26.024Z,14.05
2023-05-23T12:56:52.636Z,16.60
2023-05-23T12:59:20.540Z,11.43
2023-05-23T13:01:47.314Z,10.88
2023-05-23T13:04:14.088Z,10.73
2023-05-23T13:06:40.650Z,15.60
2023-05-23T13:09:07.453Z,16.70
2023-05-23T13:11:34.036Z,11.48
2023-05-23T13:14:00.599Z,10.15
2023-05-23T13:16:27.227Z,13.82
2023-05-23T13:18:53.899Z,14.48
2023-05-23T13:21:20.601Z,14.63
2023-05-23T13:23:47.185Z,10.95
2023-05-23T13:26:14.688Z,10.80
2023-05-23T13:28:41.308Z,13.77
2023-05-23T13:31:08.011Z,9.18
2023-05-23T13:33:34.716Z,10.32
2023-05-23T13:36:01.339Z,11.75
2023-05-23T13:38:27.948Z,9.50
2023-05-23T13:40:54.865Z,7.97
2023-05-23T13:43:22.048Z,13.38
2023-05-23T13:45:48.706Z,13.13
2023-05-23T13:48:15.436Z,11.98
2023-05-23T13:50:43.104Z,9.15
2023-05-23T13:53:15.132Z,12.57
2023-05-23T13:55:41.753Z,8.20
2023-05-23T13:58:08.563Z,10.60
2023-05-23T14:00:35.076Z,11.35
2023-05-23T14:03:01.711Z,9.88
2023-05-23T14:05:28.354Z,9.88
2023-05-23T14:07:54.973Z,13.02
2023-05-23T14:10:21.907Z,10.27
2023-05-23T14:12:48.522Z,8.25
2023-05-23T14:15:17.863Z,14.60
2023-05-23T14:17:44.645Z,12.10
2023-05-23T14:20:11.567Z,11.27
2023-05-23T14:22:38.123Z,10.15
2023-05-23T14:25:05.930Z,12.38
2023-05-23T14:27:32.880Z,9.45
2023-05-23T14:29:59.481Z,12.52
2023-05-23T14:32:26.202Z,9.95
2023-05-23T14:34:52.885Z,8.82
2023-05-23T14:37:19.454Z,8.60
2023-05-23T14:39:46.042Z,12.18
2023-05-23T14:42:12.962Z,9.38
2023-05-23T14:44:39.631Z,9.18
2023-05-23T14:47:06.278Z,9.18
2023-05-23T14:49:32.799Z,7.95
2023-05-23T14:51:59.494Z,11.02
2023-05-23T14:54:26.285Z,8.50
2023-05-23T14:56:53.537Z,11.75
2023-05-23T14:59:20.658Z,8.35
2023-05-23T15:01:47.272Z,9.13
2023-05-23T15:04:14.218Z,9.48
2023-05-23T15:06:41.958Z,9.18
2023-05-23T15:09:10.674Z,9.45
2023-05-23T15:11:39.443Z,10.57
2023-05-23T15:14:06.485Z,9.40
2023-05-23T15:16:33.677Z,9.30
2023-05-23T15:19:00.517Z,11.13
2023-05-23T15:21:27.391Z,10.88
2023-05-23T15:23:54.404Z,13.32
2023-05-23T15:26:20.985Z,8.63
2023-05-23T15:28:47.676Z,7.97
2023-05-23T15:31:14.291Z,11.57
2023-05-23T15:33:41.069Z,9.63
2023-05-23T15:36:08.120Z,9.70
2023-05-23T15:38:34.710Z,8.50
2023-05-23T15:41:01.455Z,11.90
2023-05-23T15:43:28.112Z,11.00
2023-05-23T15:45:54.785Z,10.02
2023-05-23T15:48:21.387Z,14.70
2023-05-23T15:50:48.035Z,10.02
2023-05-23T15:53:14.712Z,9.98
2023-05-23T15:55:42.569Z,9.88
2023-05-23T15:58:10.592Z,11.00
2023-05-23T16:00:37.234Z,12.73
2023-05-23T16:03:03.995Z,8.60
2023-05-23T16:05:30.629Z,12.82
2023-05-23T16:07:57.246Z,9.90
2023-05-23T16:10:24.753Z,8.85
2023-05-23T16:12:51.497Z,8.15
2023-05-23T16:15:18.012Z,11.05
2023-05-23T16:17:44.666Z,11.45
2023-05-23T16:20:11.686Z,11.20
2023-05-23T16:22:38.331Z,10.52
2023-05-23T16:25:07.940Z,8.93
2023-05-23T16:27:34.593Z,10.07
2023-05-23T16:30:01.383Z,13.07
2023-05-23T16:32:28.973Z,11.57
2023-05-23T16:34:55.802Z,10.05
2023-05-23T16:37:22.512Z,15.00
2023-05-23T16:39:49.100Z,8.30
2023-05-23T16:42:16.586Z,10.85
2023-05-23T16:44:43.344Z,8.82
2023-05-23T16:47:09.935Z,10.18
2023-05-23T16:49:36.520Z,19.92
2023-05-23T16:52:03.315Z,13.27
2023-05-23T16:54:29.842Z,11.13
2023-05-23T16:56:57.699Z,12.93
2023-05-23T16:59:24.258Z,9.27
2023-05-23T17:01:51.066Z,8.68
2023-05-23T17:04:20.220Z,8.75
2023-05-23T17:06:47.136Z,8.60
2023-05-23T17:09:14.901Z,9.38
2023-05-23T17:11:41.501Z,12.98
2023-05-23T17:14:08.099Z,11.70
2023-05-23T17:16:34.852Z,8.68
2023-05-23T17:19:01.784Z,11.85
2023-05-23T17:21:30.048Z,9.40
2023-05-23T17:23:56.728Z,12.50
2023-05-23T17:26:23.304Z,8.43
2023-05-23T17:28:49.868Z,13.32
2023-05-23T17:31:16.533Z,8.07
2023-05-23T17:33:44.002Z,10.23
2023-05-23T17:36:11.031Z,12.07
2023-05-23T17:38:38.602Z,9.32
2023-05-23T17:41:05.543Z,8.93
2023-05-23T17:43:32.094Z,10.05
2023-05-23T17:45:58.790Z,8.65
2023-05-23T17:48:38.391Z,8.30
2023-05-23T17:51:11.957Z,12.27
2023-05-23T17:53:41.310Z,9.25
2023-05-23T17:56:09.329Z,9.13
2023-05-23T17:58:37.539Z,12.18
2023-05-23T18:01:05.061Z,16.48
2023-05-23T18:03:32.238Z,10.02
2023-05-23T18:05:58.905Z,11.27
2023-05-23T18:08:25.723Z,9.70
2023-05-23T18:10:52.601Z,10.70
2023-05-23T18:13:19.230Z,10.68
2023-05-23T18:15:45.996Z,10.00
2023-05-23T18:18:12.743Z,8.52
2023-05-23T18:20:39.669Z,8.73
2023-05-23T18:23:06.688Z,12.68
2023-05-23T18:25:33.511Z,10.80
2023-05-23T18:28:01.312Z,9.65
2023-05-23T18:30:28.369Z,9.82
2023-05-23T18:32:55.754Z,9.13
2023-05-23T18:35:22.618Z,10.30
2023-05-23T18:37:49.195Z,11.30
2023-05-23T18:40:16.056Z,9.73
2023-05-23T18:42:42.617Z,10.05
2023-05-23T18:45:09.927Z,11.45
2023-05-23T18:47:36.590Z,8.75
2023-05-23T18:50:03.588Z,9.10
2023-05-23T18:52:30.858Z,10.57
2023-05-23T18:54:57.587Z,8.38
2023-05-23T18:57:24.185Z,7.90
2023-05-23T18:59:50.745Z,12.95
2023-05-23T19:02:18.973Z,13.18
2023-05-23T19:04:45.897Z,12.77
2023-05-23T19:07:12.835Z,10.23
2023-05-23T19:09:39.402Z,11.77
2023-05-23T19:12:06.338Z,10.23
2023-05-23T19:14:32.857Z,8.52
2023-05-23T19:16:59.909Z,11.85
2023-05-23T19:19:29.260Z,8.13
2023-05-23T19:21:58.241Z,12.05
2023-05-23T19:24:24.886Z,12.10
2023-05-23T19:26:51.523Z,8.35
2023-05-23T19:29:18.057Z,10.30
2023-05-23T19:31:47.655Z,8.13
2023-05-23T19:34:14.415Z,11.18
2023-05-23T19:36:41.294Z,8.68
2023-05-23T19:39:07.809Z,7.30
2023-05-23T19:41:34.367Z,8.73
2023-05-23T19:44:00.909Z,8.30
2023-05-23T19:46:28.960Z,8.02
2023-05-23T19:48:57.840Z,12.68
2023-05-23T19:51:25.461Z,12.93
2023-05-23T19:53:52.205Z,9.60
2023-05-23T19:56:18.896Z,9.65
2023-05-23T19:58:45.576Z,9.20
2023-05-23T20:01:12.511Z,7.90
2023-05-23T20:03:39.732Z,8.80
2023-05-23T20:06:06.863Z,8.95
2023-05-23T20:08:33.394Z,9.00
2023-05-23T20:11:00.124Z,10.88
2023-05-23T20:13:28.149Z,11.82
2023-05-23T20:15:58.023Z,9.93
2023-05-23T20:18:24.721Z,10.27
2023-05-23T20:20:51.252Z,10.35
2023-05-23T20:23:17.867Z,12.57
2023-05-23T20:25:44.391Z,11.63
2023-05-23T20:28:11.156Z,8.40
2023-05-23T20:30:37.790Z,11.30
2023-05-23T20:33:04.439Z,12.52
2023-05-23T20:35:31.359Z,12.18
2023-05-23T20:37:58.635Z,8.23
2023-05-23T20:40:26.941Z,12.50
2023-05-23T20:42:53.571Z,8.80
2023-05-23T20:45:20.341Z,10.70
2023-05-23T20:47:47.335Z,10.50
2023-05-23T20:50:14.850Z,9.15
2023-05-23T20:52:43.040Z,10.02
2023-05-23T20:55:10.840Z,9.40
2023-05-23T20:57:37.764Z,13.35
2023-05-23T21:00:11.093Z,8.35
2023-05-23T21:02:38.351Z,10.40
2023-05-23T21:05:08.282Z,9.05
2023-05-23T21:07:34.983Z,10.63
2023-05-23T21:10:02.122Z,8.45
2023-05-23T21:12:28.841Z,8.23
2023-05-23T21:14:58.086Z,8.27
2023-05-23T21:17:25.080Z,11.52
2023-05-23T21:19:51.832Z,8.32
2023-05-23T21:22:18.393Z,10.25
2023-05-23T21:24:45.034Z,14.20
2023-05-23T21:27:12.199Z,8.82
2023-05-23T21:29:38.773Z,13.60
2023-05-23T21:32:05.364Z,7.90
2023-05-23T21:34:31.908Z,9.82
2023-05-23T21:36:58.559Z,10.38
2023-05-23T21:39:27.363Z,10.07
2023-05-23T21:41:57.380Z,14.60
2023-05-23T21:44:23.918Z,9.75
2023-05-23T21:46:50.751Z,13.65
2023-05-23T21:49:17.358Z,10.43
2023-05-23T21:51:44.240Z,8.13
2023-05-23T21:54:10.980Z,11.13
2023-05-23T21:56:39.530Z,12.13
2023-05-23T21:59:06.195Z,13.18
2023-05-23T22:01:33.215Z,12.95
2023-05-23T22:03:59.983Z,11.43
2023-05-23T22:06:26.647Z,8.88
2023-05-23T22:08:53.208Z,9.43
2023-05-23T22:11:19.807Z,14.73
2023-05-23T22:13:46.638Z,11.23
2023-05-23T22:16:13.409Z,9.00
2023-05-23T22:18:51.411Z,8.80
2023-05-23T22:21:18.427Z,13.88
2023-05-23T22:23:45.168Z,12.60
2023-05-23T22:26:12.595Z,9.30
2023-05-23T22:28:39.362Z,8.50
2023-05-23T22:31:06.065Z,9.02
2023-05-23T22:33:35.662Z,9.35
2023-05-23T22:36:02.172Z,8.82
2023-05-23T22:38:28.770Z,12.85
2023-05-23T22:40:55.345Z,8.55
2023-05-23T22:43:22.067Z,9.00
2023-05-23T22:45:50.161Z,13.50
2023-05-23T22:48:19.350Z,9.93
2023-05-23T22:50:46.681Z,9.02
2023-05-23T22:53:16.611Z,9.90
2023-05-23T22:55:43.183Z,11.30
2023-05-23T22:58:09.758Z,9.82
2023-05-23T23:00:36.694Z,13.88
2023-05-23T23:03:03.932Z,8.90
2023-05-23T23:05:30.947Z,8.93
2023-05-23T23:07:57.574Z,8.73
2023-05-23T23:10:24.207Z,9.90
2023-05-23T23:12:51.044Z,11.45
2023-05-23T23:15:17.710Z,12.77
2023-05-23T23:17:45.901Z,13.05
2023-05-23T23:20:13.051Z,12.20
2023-05-23T23:22:39.727Z,10.70
2023-05-23T23:25:10.636Z,10.20
2023-05-23T23:30:05.237Z,8.93
2023-05-23T23:32:33.482Z,10.65
2023-05-23T23:35:00.859Z,12.63
2023-05-23T23:37:27.508Z,10.00
2023-05-23T23:39:54.095Z,13.20
2023-05-23T23:42:20.717Z,10.00
2023-05-23T23:44:47.296Z,11.73
2023-05-23T23:47:13.868Z,12.98
2023-05-23T23:49:40.606Z,9.60
2023-05-23T23:52:07.149Z,10.13
2023-05-23T23:54:33.673Z,11.65
2023-05-23T23:57:00.457Z,16.20
2023-05-23T23:59:26.986Z,11.30
